createdAt,value
2022-08-22T00:01:56.554Z,55.17
2022-08-22T00:04:34.430Z,54.99
2022-08-22T00:07:09.264Z,54.96
2022-08-22T00:09:45.310Z,54.78
2022-08-22T00:12:22.723Z,55.11
2022-08-22T00:14:59.120Z,55.24
2022-08-22T00:17:41.120Z,55.26
2022-08-22T00:20:16.687Z,55.48
2022-08-22T00:22:52.535Z,55.02
2022-08-22T00:25:45.499Z,55.35
2022-08-22T00:28:17.930Z,55.48
2022-08-22T00:30:59.640Z,55.40
2022-08-22T00:33:36.525Z,55.57
2022-08-22T00:36:13.735Z,55.66
2022-08-22T00:38:47.832Z,55.69
2022-08-22T00:41:31.713Z,55.50
2022-08-22T00:44:23.183Z,55.57
2022-08-22T00:47:07.865Z,55.49
2022-08-22T00:49:56.524Z,55.51
2022-08-22T00:52:41.414Z,55.51
2022-08-22T00:55:28.079Z,55.41
2022-08-22T00:58:40.261Z,55.64
2022-08-22T01:01:11.298Z,55.59
2022-08-22T01:03:53.936Z,55.48
2022-08-22T01:06:30.792Z,55.70
2022-08-22T01:09:05.904Z,55.76
2022-08-22T01:12:00.532Z,55.75
2022-08-22T01:14:39.879Z,55.60
2022-08-22T01:17:45.575Z,55.64
2022-08-22T01:21:16.866Z,55.86
2022-08-22T01:24:59.988Z,55.89
2022-08-22T01:28:07.359Z,55.75
2022-08-22T01:30:57.827Z,55.98
2022-08-22T01:34:18.307Z,55.94
2022-08-22T01:37:10.329Z,56.15
2022-08-22T01:40:02.240Z,56.50
2022-08-22T01:42:54.881Z,56.38
2022-08-22T01:45:59.557Z,56.17
2022-08-22T01:48:36.080Z,56.36
2022-08-22T01:51:18.405Z,56.63
2022-08-22T01:54:01.669Z,56.47
2022-08-22T01:56:37.009Z,56.79
2022-08-22T01:59:10.059Z,56.09
2022-08-22T02:01:53.603Z,56.87
2022-08-22T02:04:34.614Z,56.77
2022-08-22T02:07:09.086Z,56.85
2022-08-22T02:09:46.457Z,56.97
2022-08-22T02:12:28.080Z,57.25
2022-08-22T02:15:09.386Z,57.42
2022-08-22T02:17:55.016Z,57.37
2022-08-22T02:20:28.608Z,57.19
2022-08-22T02:23:04.971Z,57.05
2022-08-22T02:25:47.174Z,57.49
2022-08-22T02:28:20.862Z,57.65
2022-08-22T02:30:54.553Z,57.78
2022-08-22T02:33:32.577Z,57.65
2022-08-22T02:36:08.213Z,57.39
2022-08-22T02:38:44.058Z,57.72
2022-08-22T02:41:19.832Z,57.78
2022-08-22T02:43:53.171Z,57.40
2022-08-22T02:46:31.183Z,57.50
2022-08-22T02:49:10.302Z,58.05
2022-08-22T02:51:50.849Z,57.99
2022-08-22T02:54:29.141Z,58.03
2022-08-22T02:57:06.266Z,57.65
2022-08-22T03:00:32.088Z,57.77
2022-08-22T03:03:05.634Z,57.79
2022-08-22T03:05:49.300Z,58.12
2022-08-22T03:08:23.836Z,58.27
2022-08-22T03:11:04.705Z,57.95
2022-08-22T03:13:47.653Z,58.29
2022-08-22T03:16:22.678Z,58.16
2022-08-22T03:19:00.651Z,58.06
2022-08-22T03:21:35.282Z,57.99
2022-08-22T03:24:13.579Z,57.94
2022-08-22T03:26:50.422Z,58.08
2022-08-22T03:29:24.081Z,58.09
2022-08-22T03:32:15.196Z,58.29
2022-08-22T03:34:59.267Z,57.86
2022-08-22T03:37:40.867Z,58.21
2022-08-22T03:40:23.974Z,58.13
2022-08-22T03:43:33.981Z,57.99
2022-08-22T03:46:24.312Z,58.02
2022-08-22T03:49:21.533Z,58.20
2022-08-22T03:52:19.165Z,57.79
2022-08-22T03:55:18.361Z,57.86
2022-08-22T03:58:22.285Z,58.27
2022-08-22T04:01:25.935Z,58.32
2022-08-22T04:04:27.768Z,58.15
2022-08-22T04:07:33.447Z,58.31
2022-08-22T04:10:26.875Z,58.22
2022-08-22T04:13:18.499Z,58.09
2022-08-22T04:16:30.186Z,58.47
2022-08-22T04:19:19.436Z,58.17
2022-08-22T04:22:20.663Z,58.42
2022-08-22T04:24:59.626Z,58.42
2022-08-22T04:27:32.896Z,58.59
2022-08-22T04:30:07.514Z,58.45
2022-08-22T04:32:43.703Z,58.37
2022-08-22T04:35:20.157Z,58.25
2022-08-22T04:37:53.328Z,58.41
2022-08-22T04:40:26.896Z,58.45
2022-08-22T04:43:03.752Z,58.71
2022-08-22T04:45:36.868Z,58.47
2022-08-22T04:48:09.805Z,58.84
2022-08-22T04:50:45.303Z,58.66
2022-08-22T04:53:26.915Z,58.92
2022-08-22T04:56:07.277Z,58.57
2022-08-22T04:58:45.078Z,58.60
2022-08-22T05:01:20.731Z,58.91
2022-08-22T05:03:54.923Z,58.67
2022-08-22T05:06:28.618Z,58.78
2022-08-22T05:09:00.900Z,58.84
2022-08-22T05:11:30.964Z,59.22
2022-08-22T05:14:04.439Z,59.32
2022-08-22T05:16:37.807Z,59.10
2022-08-22T05:19:15.713Z,59.10
2022-08-22T05:21:49.520Z,58.97
2022-08-22T05:24:28.099Z,59.07
2022-08-22T05:26:58.668Z,59.17
2022-08-22T05:29:32.657Z,59.20
2022-08-22T05:32:04.356Z,59.56
2022-08-22T05:34:37.522Z,59.38
2022-08-22T05:37:14.204Z,59.52
2022-08-22T05:39:48.616Z,59.66
2022-08-22T05:42:23.596Z,59.61
2022-08-22T05:44:51.913Z,59.50
2022-08-22T05:47:23.978Z,59.58
2022-08-22T05:50:00.627Z,59.92
2022-08-22T05:52:43.543Z,59.64
2022-08-22T05:55:25.444Z,58.89
2022-08-22T05:58:20.779Z,59.04
2022-08-22T06:00:55.334Z,58.38
2022-08-22T06:03:28.940Z,58.48
2022-08-22T06:06:01.250Z,58.29
2022-08-22T06:08:35.429Z,57.93
2022-08-22T06:11:10.482Z,57.75
2022-08-22T06:13:41.738Z,56.86
2022-08-22T06:16:17.969Z,56.55
2022-08-22T06:18:46.681Z,56.47
2022-08-22T06:21:21.855Z,56.18
2022-08-22T06:23:56.705Z,56.35
2022-08-22T06:26:26.883Z,56.04
2022-08-22T06:28:59.574Z,55.95
2022-08-22T06:31:32.473Z,55.95
2022-08-22T06:34:05.893Z,56.17
2022-08-22T06:36:36.635Z,55.67
2022-08-22T06:39:14.953Z,55.40
2022-08-22T06:41:50.460Z,55.57
2022-08-22T06:44:23.304Z,55.64
2022-08-22T06:46:55.393Z,55.37
2022-08-22T06:49:26.165Z,55.21
2022-08-22T06:51:58.719Z,54.92
2022-08-22T06:54:34.411Z,55.09
2022-08-22T06:57:04.605Z,55.35
2022-08-22T06:59:37.933Z,54.87
2022-08-22T07:02:17.735Z,54.95
2022-08-22T07:04:50.127Z,55.29
2022-08-22T07:07:21.017Z,55.34
2022-08-22T07:09:55.480Z,55.11
2022-08-22T07:12:27.269Z,55.01
2022-08-22T07:15:00.672Z,54.81
2022-08-22T07:17:31.447Z,54.91
2022-08-22T07:20:04.999Z,55.13
2022-08-22T07:22:36.517Z,55.39
2022-08-22T07:25:11.002Z,55.60
2022-08-22T07:27:53.704Z,55.63
2022-08-22T07:30:27.504Z,55.54
2022-08-22T07:33:23.634Z,55.57
2022-08-22T07:35:56.901Z,54.79
2022-08-22T07:38:36.341Z,54.59
2022-08-22T07:41:14.033Z,54.74
2022-08-22T07:43:46.943Z,55.22
2022-08-22T07:46:29.726Z,54.97
2022-08-22T07:49:10.313Z,55.09
2022-08-22T07:51:44.549Z,55.42
2022-08-22T07:54:15.825Z,55.61
2022-08-22T07:56:52.838Z,55.61
2022-08-22T07:59:22.517Z,55.51
2022-08-22T08:01:54.113Z,55.51
2022-08-22T08:04:25.171Z,55.58
2022-08-22T08:06:56.188Z,55.57
2022-08-22T08:09:26.354Z,55.53
2022-08-22T08:11:55.844Z,55.27
2022-08-22T08:14:25.273Z,55.51
2022-08-22T08:17:03.789Z,55.31
2022-08-22T08:19:34.448Z,55.50
2022-08-22T08:22:04.969Z,55.60
2022-08-22T08:24:40.975Z,55.88
2022-08-22T08:27:34.996Z,55.68
2022-08-22T08:30:06.659Z,55.34
2022-08-22T08:32:38.667Z,55.55
2022-08-22T08:35:23.314Z,55.90
2022-08-22T08:37:58.363Z,55.66
2022-08-22T08:40:48.526Z,55.06
2022-08-22T08:43:30.191Z,55.16
2022-08-22T08:46:39.291Z,55.37
2022-08-22T08:49:25.931Z,54.78
2022-08-22T08:52:21.417Z,53.96
2022-08-22T08:55:02.467Z,53.29
2022-08-22T08:58:10.237Z,52.84
2022-08-22T09:00:55.830Z,52.84
2022-08-22T09:03:51.511Z,52.91
2022-08-22T09:06:43.905Z,52.70
2022-08-22T09:09:41.270Z,52.66
2022-08-22T09:12:56.226Z,51.78
2022-08-22T09:15:43.817Z,52.00
2022-08-22T09:18:58.083Z,51.59
2022-08-22T09:21:55.542Z,50.84
2022-08-22T09:24:49.108Z,50.23
2022-08-22T09:27:25.184Z,49.99
2022-08-22T09:30:00.826Z,49.23
2022-08-22T09:32:44.077Z,49.60
2022-08-22T09:35:23.321Z,49.85
2022-08-22T09:38:11.037Z,48.95
2022-08-22T09:40:45.694Z,48.20
2022-08-22T09:43:21.146Z,48.14
2022-08-22T09:45:57.895Z,47.79
2022-08-22T09:48:50.070Z,48.35
2022-08-22T09:51:34.540Z,48.37
2022-08-22T09:54:31.217Z,48.38
2022-08-22T09:57:15.108Z,47.05
2022-08-22T10:00:02.077Z,47.55
2022-08-22T10:02:36.706Z,46.04
2022-08-22T10:05:40.636Z,46.65
2022-08-22T10:08:20.668Z,46.26
2022-08-22T10:11:33.547Z,47.09
2022-08-22T10:14:12.576Z,46.72
2022-08-22T10:16:54.511Z,45.88
2022-08-22T10:19:29.928Z,45.75
2022-08-22T10:22:29.852Z,45.50
2022-08-22T10:25:18.536Z,44.76
2022-08-22T10:27:57.079Z,44.48
2022-08-22T10:30:29.118Z,44.02
2022-08-22T10:33:03.545Z,43.87
2022-08-22T10:35:39.017Z,44.06
2022-08-22T10:38:25.312Z,43.11
2022-08-22T10:41:01.714Z,42.34
2022-08-22T10:43:38.909Z,41.83
2022-08-22T10:46:14.369Z,41.94
2022-08-22T10:48:48.985Z,41.95
2022-08-22T10:51:25.466Z,41.00
2022-08-22T10:54:19.845Z,41.82
2022-08-22T10:56:55.586Z,40.91
2022-08-22T10:59:44.720Z,40.55
2022-08-22T11:02:39.445Z,40.89
2022-08-22T11:05:33.775Z,38.43
2022-08-22T11:08:14.647Z,39.27
2022-08-22T11:11:03.158Z,39.58
2022-08-22T11:13:42.303Z,40.18
2022-08-22T11:16:24.926Z,39.54
2022-08-22T11:19:15.023Z,39.66
2022-08-22T11:21:57.928Z,39.87
2022-08-22T11:24:58.063Z,38.88
2022-08-22T11:27:39.786Z,38.35
2022-08-22T11:30:18.693Z,38.21
2022-08-22T11:33:17.859Z,38.60
2022-08-22T11:35:54.440Z,37.91
2022-08-22T11:38:32.622Z,36.72
2022-08-22T11:41:05.269Z,36.67
2022-08-22T11:43:44.591Z,35.94
2022-08-22T11:46:23.066Z,36.71
2022-08-22T11:49:18.975Z,38.33
2022-08-22T11:51:57.433Z,39.08
2022-08-22T11:54:35.102Z,38.25
2022-08-22T11:57:08.617Z,38.29
2022-08-22T12:00:01.753Z,38.41
2022-08-22T12:02:42.198Z,37.73
2022-08-22T12:05:20.214Z,38.40
2022-08-22T12:07:57.752Z,38.04
2022-08-22T12:10:31.497Z,37.43
2022-08-22T12:13:06.257Z,36.47
2022-08-22T12:15:43.605Z,35.68
2022-08-22T12:18:31.155Z,37.28
2022-08-22T12:21:19.074Z,37.26
2022-08-22T12:24:11.279Z,36.88
2022-08-22T12:27:03.194Z,36.84
2022-08-22T12:29:45.438Z,36.78
2022-08-22T12:32:52.126Z,36.96
2022-08-22T12:35:32.709Z,35.59
2022-08-22T12:38:28.798Z,36.03
2022-08-22T12:41:35.888Z,36.52
2022-08-22T12:44:21.352Z,36.64
2022-08-22T12:47:04.309Z,36.00
2022-08-22T12:49:49.773Z,36.03
2022-08-22T12:52:33.108Z,35.98
2022-08-22T12:55:33.860Z,36.32
2022-08-22T12:58:12.023Z,35.85
2022-08-22T13:00:45.240Z,35.58
2022-08-22T13:03:25.116Z,35.72
2022-08-22T13:05:57.015Z,36.14
2022-08-22T13:08:32.603Z,35.44
2022-08-22T13:11:03.195Z,35.15
2022-08-22T13:13:41.354Z,35.26
2022-08-22T13:16:12.323Z,35.16
2022-08-22T13:18:53.596Z,35.09
2022-08-22T13:21:31.634Z,34.53
2022-08-22T13:24:10.879Z,35.78
2022-08-22T13:26:49.106Z,35.28
2022-08-22T13:29:26.169Z,34.72
2022-08-22T13:32:00.375Z,33.92
2022-08-22T13:34:40.582Z,33.76
2022-08-22T13:37:17.457Z,33.76
2022-08-22T13:39:54.687Z,33.68
2022-08-22T13:42:30.309Z,34.48
2022-08-22T13:45:04.345Z,34.20
2022-08-22T13:47:39.235Z,34.64
2022-08-22T13:50:14.168Z,34.26
2022-08-22T13:52:49.259Z,34.76
2022-08-22T13:55:29.703Z,34.23
2022-08-22T13:58:06.898Z,34.44
2022-08-22T14:01:16.436Z,33.94
2022-08-22T14:03:48.791Z,34.98
2022-08-22T14:06:36.842Z,34.15
2022-08-22T14:09:15.077Z,33.93
2022-08-22T14:11:51.965Z,34.45
2022-08-22T14:14:27.392Z,34.69
2022-08-22T14:16:58.212Z,35.11
2022-08-22T14:19:48.992Z,35.39
2022-08-22T14:22:32.079Z,35.46
2022-08-22T14:25:07.165Z,35.93
2022-08-22T14:27:43.959Z,35.77
2022-08-22T14:30:18.668Z,36.04
2022-08-22T14:32:52.221Z,35.72
2022-08-22T14:35:34.647Z,36.29
2022-08-22T14:38:17.901Z,35.68
2022-08-22T14:40:46.731Z,36.14
2022-08-22T14:43:23.937Z,36.42
2022-08-22T14:46:02.230Z,36.68
2022-08-22T14:48:40.548Z,36.26
2022-08-22T14:51:11.665Z,35.83
2022-08-22T14:53:41.549Z,35.15
2022-08-22T14:56:12.469Z,35.72
2022-08-22T14:58:52.467Z,35.99
2022-08-22T15:01:24.311Z,34.45
2022-08-22T15:03:55.451Z,34.55
2022-08-22T15:06:37.261Z,34.18
2022-08-22T15:09:09.274Z,34.54
2022-08-22T15:11:42.317Z,35.17
2022-08-22T15:14:23.203Z,35.10
2022-08-22T15:16:55.507Z,35.67
2022-08-22T15:19:27.622Z,36.17
2022-08-22T15:22:11.344Z,35.56
2022-08-22T15:24:45.234Z,35.47
2022-08-22T15:27:19.108Z,36.17
2022-08-22T15:29:53.411Z,35.69
2022-08-22T15:32:23.458Z,36.46
2022-08-22T15:35:03.571Z,36.73
2022-08-22T15:37:34.949Z,36.60
2022-08-22T15:40:12.070Z,37.31
2022-08-22T15:42:43.368Z,36.27
2022-08-22T15:45:23.993Z,36.58
2022-08-22T15:47:54.424Z,36.89
2022-08-22T15:50:35.826Z,37.42
2022-08-22T15:53:16.295Z,37.21
2022-08-22T15:56:15.443Z,36.81
2022-08-22T15:58:49.176Z,36.51
2022-08-22T16:01:22.215Z,36.26
2022-08-22T16:03:56.813Z,36.56
2022-08-22T16:06:43.748Z,36.46
2022-08-22T16:09:35.769Z,37.35
2022-08-22T16:12:09.498Z,37.82
2022-08-22T16:14:50.876Z,37.79
2022-08-22T16:17:45.020Z,37.90
2022-08-22T16:20:57.029Z,38.17
2022-08-22T16:23:24.980Z,39.37
2022-08-22T16:26:12.355Z,38.77
2022-08-22T16:28:58.169Z,41.42
2022-08-22T16:31:31.275Z,42.49
2022-08-22T16:34:24.395Z,41.19
2022-08-22T16:37:43.946Z,41.64
2022-08-22T16:40:18.586Z,43.22
2022-08-22T16:42:50.767Z,42.63
2022-08-22T16:45:22.207Z,42.41
2022-08-22T16:47:58.099Z,43.25
2022-08-22T16:50:34.821Z,43.07
2022-08-22T16:53:10.034Z,42.97
2022-08-22T16:56:13.952Z,42.89
2022-08-22T16:59:22.062Z,43.58
2022-08-22T17:02:07.349Z,43.97
2022-08-22T17:04:41.613Z,44.25
2022-08-22T17:07:20.328Z,44.39
2022-08-22T17:10:13.100Z,45.08
2022-08-22T17:13:06.901Z,44.99
2022-08-22T17:15:41.978Z,45.94
2022-08-22T17:18:20.017Z,43.98
2022-08-22T17:20:54.073Z,45.91
2022-08-22T17:23:36.704Z,45.52
2022-08-22T17:26:18.982Z,46.38
2022-08-22T17:28:57.657Z,47.44
2022-08-22T17:31:34.426Z,47.58
2022-08-22T17:34:18.597Z,47.99
2022-08-22T17:37:04.914Z,47.90
2022-08-22T17:40:04.494Z,47.86
2022-08-22T17:42:46.727Z,48.64
2022-08-22T17:45:27.545Z,48.60
2022-08-22T17:48:03.937Z,48.92
2022-08-22T17:50:39.545Z,49.66
2022-08-22T17:53:16.490Z,49.70
2022-08-22T17:56:05.759Z,49.25
2022-08-22T17:58:43.933Z,49.81
2022-08-22T18:01:16.552Z,49.68
2022-08-22T18:03:53.402Z,49.48
2022-08-22T18:06:25.389Z,49.87
2022-08-22T18:09:15.187Z,50.00
2022-08-22T18:11:51.681Z,50.47
2022-08-22T18:14:30.979Z,50.70
2022-08-22T18:17:00.940Z,50.80
2022-08-22T18:19:43.355Z,50.30
2022-08-22T18:22:20.661Z,50.30
2022-08-22T18:24:55.734Z,50.89
2022-08-22T18:27:34.662Z,50.48
2022-08-22T18:30:08.173Z,50.71
2022-08-22T18:32:43.880Z,50.92
2022-08-22T18:35:17.997Z,51.08
2022-08-22T18:37:56.423Z,50.84
2022-08-22T18:40:34.483Z,50.91
2022-08-22T18:43:14.501Z,51.08
2022-08-22T18:46:05.917Z,50.74
2022-08-22T18:48:59.367Z,50.90
2022-08-22T18:51:34.857Z,51.23
2022-08-22T18:54:32.424Z,50.83
2022-08-22T18:57:09.356Z,51.18
2022-08-22T18:59:59.218Z,50.96
2022-08-22T19:03:05.421Z,50.87
2022-08-22T19:06:02.211Z,50.98
2022-08-22T19:09:18.412Z,50.71
2022-08-22T19:11:56.705Z,51.80
2022-08-22T19:14:43.204Z,51.21
2022-08-22T19:17:28.638Z,51.05
2022-08-22T19:20:19.651Z,51.55
2022-08-22T19:22:51.085Z,51.32
2022-08-22T19:25:26.154Z,51.41
2022-08-22T19:28:23.993Z,51.08
2022-08-22T19:30:53.402Z,51.38
2022-08-22T19:33:34.690Z,51.29
2022-08-22T19:36:10.800Z,50.86
2022-08-22T19:38:56.722Z,50.65
2022-08-22T19:41:47.157Z,50.79
2022-08-22T19:44:34.612Z,50.76
2022-08-22T19:47:13.372Z,50.78
2022-08-22T19:49:48.757Z,51.14
2022-08-22T19:52:23.925Z,50.18
2022-08-22T19:54:59.840Z,50.90
2022-08-22T19:57:42.715Z,50.90
2022-08-22T20:00:14.042Z,51.50
2022-08-22T20:02:57.415Z,51.48
2022-08-22T20:05:37.334Z,52.02
2022-08-22T20:08:24.938Z,51.68
2022-08-22T20:11:03.949Z,52.21
2022-08-22T20:13:35.285Z,52.31
2022-08-22T20:16:14.155Z,52.33
2022-08-22T20:19:00.255Z,52.47
2022-08-22T20:21:46.647Z,52.04
2022-08-22T20:24:21.021Z,52.37
2022-08-22T20:27:12.653Z,52.62
2022-08-22T20:29:48.010Z,52.13
2022-08-22T20:32:19.430Z,52.42
2022-08-22T20:34:50.327Z,51.98
2022-08-22T20:37:44.991Z,52.67
2022-08-22T20:40:54.504Z,52.27
2022-08-22T20:43:17.968Z,52.29
2022-08-22T20:45:59.481Z,51.96
2022-08-22T20:48:37.672Z,52.37
2022-08-22T20:51:06.878Z,52.22
2022-08-22T20:53:37.521Z,52.63
2022-08-22T20:56:08.123Z,51.94
2022-08-22T20:58:39.079Z,51.89
2022-08-22T21:01:08.552Z,52.24
2022-08-22T21:03:42.447Z,52.26
2022-08-22T21:06:13.622Z,52.08
2022-08-22T21:08:43.960Z,52.06
2022-08-22T21:11:38.394Z,51.39
2022-08-22T21:14:19.456Z,51.35
2022-08-22T21:16:47.527Z,51.44
2022-08-22T21:19:20.348Z,51.72
2022-08-22T21:21:48.477Z,51.90
2022-08-22T21:24:17.940Z,51.46
2022-08-22T21:26:50.786Z,51.70
2022-08-22T21:29:32.705Z,52.01
2022-08-22T21:32:12.778Z,51.51
2022-08-22T21:34:44.907Z,52.16
2022-08-22T21:37:16.975Z,52.04
2022-08-22T21:39:49.137Z,52.14
2022-08-22T21:42:24.716Z,52.27
2022-08-22T21:44:57.425Z,51.80
2022-08-22T21:47:37.780Z,52.57
2022-08-22T21:50:26.727Z,52.52
2022-08-22T21:53:04.501Z,52.10
2022-08-22T21:55:35.245Z,52.34
2022-08-22T21:58:36.749Z,52.36
2022-08-22T22:01:27.799Z,52.08
2022-08-22T22:03:56.328Z,52.32
2022-08-22T22:06:24.148Z,52.44
2022-08-22T22:08:52.533Z,52.67
2022-08-22T22:11:22.450Z,52.66
2022-08-22T22:13:50.909Z,52.69
2022-08-22T22:16:25.062Z,52.77
2022-08-22T22:18:53.313Z,52.91
2022-08-22T22:21:21.508Z,52.71
2022-08-22T22:23:50.958Z,52.71
2022-08-22T22:26:21.040Z,52.67
2022-08-22T22:28:51.672Z,53.01
2022-08-22T22:31:19.802Z,53.03
2022-08-22T22:33:47.827Z,53.09
2022-08-22T22:36:21.367Z,53.24
2022-08-22T22:38:52.168Z,53.20
2022-08-22T22:41:25.580Z,52.99
2022-08-22T22:43:55.855Z,52.80
2022-08-22T22:46:24.350Z,53.20
2022-08-22T22:48:53.922Z,53.26
2022-08-22T22:51:22.226Z,53.18
2022-08-22T22:53:51.148Z,53.46
2022-08-22T22:56:23.801Z,53.36
2022-08-22T22:59:01.024Z,53.29
2022-08-22T23:02:01.458Z,53.29
2022-08-22T23:04:30.036Z,53.48
2022-08-22T23:06:58.514Z,53.60
2022-08-22T23:09:38.107Z,53.77
2022-08-22T23:12:13.041Z,53.81
2022-08-22T23:14:41.532Z,53.74
2022-08-22T23:17:11.303Z,53.95
2022-08-22T23:19:40.732Z,53.87
2022-08-22T23:22:10.710Z,53.99
2022-08-22T23:24:40.681Z,54.10
2022-08-22T23:27:10.751Z,54.26
2022-08-22T23:29:43.241Z,54.30
2022-08-22T23:32:13.900Z,54.14
2022-08-22T23:34:46.374Z,54.22
2022-08-22T23:37:18.678Z,54.37
2022-08-22T23:39:47.700Z,54.33
2022-08-22T23:42:17.001Z,54.41
2022-08-22T23:44:46.417Z,54.30
2022-08-22T23:47:16.818Z,54.51
2022-08-22T23:49:45.264Z,54.32
2022-08-22T23:52:14.916Z,54.27
2022-08-22T23:54:43.134Z,54.34
2022-08-22T23:57:11.967Z,54.69
2022-08-22T23:59:48.084Z,54.54
